createdAt,value
2018-01-04T00:00:32.665Z,84.70
2018-01-04T00:03:05.947Z,85.10
2018-01-04T00:05:37.160Z,85.30
2018-01-04T00:08:12.109Z,85.70
2018-01-04T00:10:44.407Z,85.70
2018-01-04T00:13:19.170Z,85.90
2018-01-04T00:15:52.825Z,85.70
2018-01-04T00:18:27.283Z,85.80
2018-01-04T00:20:58.425Z,86.10
2018-01-04T00:23:31.018Z,86.00
2018-01-04T00:26:02.987Z,85.70
2018-01-04T00:28:34.457Z,86.10
2018-01-04T00:31:04.958Z,86.20
2018-01-04T00:33:42.640Z,86.00
2018-01-04T00:36:25.588Z,86.60
2018-01-04T00:39:04.488Z,86.60
2018-01-04T00:42:49.310Z,86.00
2018-01-04T00:45:22.126Z,85.70
2018-01-04T00:51:12.724Z,85.30
2018-01-04T00:56:59.073Z,85.30
2018-01-04T01:02:26.609Z,85.20
2018-01-04T01:05:04.349Z,85.30
2018-01-04T01:07:46.278Z,85.00
2018-01-04T01:10:21.273Z,85.00
2018-01-04T01:12:52.110Z,84.60
2018-01-04T01:15:23.093Z,85.00
2018-01-04T01:17:53.696Z,84.60
2018-01-04T01:20:25.387Z,85.20
2018-01-04T01:22:55.628Z,85.10
2018-01-04T01:25:26.905Z,85.80
2018-01-04T01:27:57.277Z,85.70
2018-01-04T01:30:27.360Z,85.20
2018-01-04T01:32:57.863Z,85.10
2018-01-04T01:35:29.753Z,85.90
2018-01-04T01:38:00.165Z,85.70
2018-01-04T01:40:32.138Z,85.30
2018-01-04T01:43:02.564Z,85.30
2018-01-04T01:45:32.585Z,84.80
2018-01-04T01:48:03.470Z,85.00
2018-01-04T01:50:35.632Z,85.00
2018-01-04T01:53:05.555Z,85.10
2018-01-04T01:55:35.891Z,85.40
2018-01-04T01:58:07.283Z,85.20
2018-01-04T02:00:40.096Z,85.20
2018-01-04T02:03:12.683Z,85.90
2018-01-04T02:05:43.695Z,86.00
2018-01-04T02:08:14.619Z,86.00
2018-01-04T02:10:45.451Z,85.50
2018-01-04T02:13:16.431Z,86.20
2018-01-04T02:15:46.981Z,86.20
2018-01-04T02:18:26.996Z,85.60
2018-01-04T02:23:13.005Z,85.80
2018-01-04T02:25:51.841Z,85.40
2018-01-04T02:28:33.298Z,85.10
2018-01-04T02:34:20.523Z,85.70
2018-01-04T02:39:01.564Z,85.70
2018-01-04T02:41:40.157Z,85.70
2018-01-04T02:44:18.695Z,86.00
2018-01-04T02:46:48.827Z,85.60
2018-01-04T02:49:19.394Z,85.50
2018-01-04T02:51:50.814Z,86.00
2018-01-04T02:54:21.604Z,85.90
2018-01-04T02:56:51.437Z,85.60
2018-01-04T02:59:24.405Z,86.20
2018-01-04T03:01:56.788Z,86.30
2018-01-04T03:04:30.095Z,86.10
2018-01-04T03:07:02.120Z,86.50
2018-01-04T03:09:32.626Z,86.60
2018-01-04T03:12:03.746Z,86.90
2018-01-04T03:14:33.958Z,86.90
2018-01-04T03:17:04.565Z,87.10
2018-01-04T03:19:36.042Z,87.10
2018-01-04T03:22:10.474Z,87.00
2018-01-04T03:24:45.400Z,87.40
2018-01-04T03:29:22.419Z,87.40
2018-01-04T03:33:59.347Z,86.90
2018-01-04T03:38:42.097Z,87.10
2018-01-04T03:41:15.993Z,87.50
2018-01-04T03:45:52.368Z,87.60
2018-01-04T03:48:28.879Z,87.20
2018-01-04T03:53:08.407Z,87.70
2018-01-04T03:56:42.789Z,87.30
2018-01-04T03:59:17.873Z,87.50
2018-01-04T04:02:50.422Z,87.60
2018-01-04T04:05:24.592Z,87.20
2018-01-04T04:07:55.735Z,87.60
2018-01-04T04:13:05.907Z,87.50
2018-01-04T04:15:38.368Z,87.50
2018-01-04T04:18:14.757Z,87.50
2018-01-04T04:20:47.139Z,87.70
2018-01-04T04:23:21.237Z,88.00
2018-01-04T04:25:53.405Z,87.80
2018-01-04T04:28:29.190Z,87.80
2018-01-04T04:30:59.146Z,88.00
2018-01-04T04:33:30.406Z,88.10
2018-01-04T04:36:01.382Z,88.50
2018-01-04T04:38:31.321Z,88.40
2018-01-04T04:41:01.240Z,87.70
2018-01-04T04:43:31.136Z,87.90
2018-01-04T04:46:01.093Z,87.60
2018-01-04T04:48:31.854Z,87.70
2018-01-04T04:51:02.376Z,87.70
2018-01-04T04:53:32.737Z,87.80
2018-01-04T04:56:02.434Z,87.80
2018-01-04T04:58:32.262Z,87.80
2018-01-04T05:01:02.167Z,87.90
2018-01-04T05:03:32.128Z,87.80
2018-01-04T05:06:03.182Z,87.70
2018-01-04T05:08:33.443Z,87.70
2018-01-04T05:11:03.672Z,88.60
2018-01-04T05:13:33.596Z,89.20
2018-01-04T05:16:03.861Z,89.70
2018-01-04T05:18:33.636Z,89.90
2018-01-04T05:21:03.777Z,89.80
2018-01-04T05:23:34.382Z,89.70
2018-01-04T05:26:04.469Z,89.70
2018-01-04T05:28:35.238Z,89.10
2018-01-04T05:31:05.571Z,89.00
2018-01-04T05:33:35.753Z,88.90
2018-01-04T05:36:05.611Z,89.50
2018-01-04T05:38:36.350Z,89.40
2018-01-04T05:41:06.514Z,89.10
2018-01-04T05:43:38.597Z,88.90
2018-01-04T05:46:09.332Z,89.20
2018-01-04T05:48:39.483Z,89.10
2018-01-04T05:51:09.757Z,89.90
2018-01-04T05:53:40.228Z,89.60
2018-01-04T05:56:10.341Z,89.40
2018-01-04T05:58:40.746Z,89.20
2018-01-04T06:01:10.576Z,89.40
2018-01-04T06:03:41.103Z,90.20
2018-01-04T06:06:11.418Z,90.40
2018-01-04T06:08:41.874Z,90.30
2018-01-04T06:11:13.264Z,90.40
2018-01-04T06:13:43.360Z,90.10
2018-01-04T06:16:14.618Z,90.20
2018-01-04T06:18:45.059Z,90.20
2018-01-04T06:21:15.376Z,90.10
2018-01-04T06:23:51.840Z,89.70
2018-01-04T06:26:21.686Z,89.60
2018-01-04T06:28:53.194Z,89.50
2018-01-04T06:31:22.944Z,89.60
2018-01-04T06:33:53.822Z,89.80
2018-01-04T06:36:24.125Z,89.50
2018-01-04T06:38:55.880Z,89.70
2018-01-04T06:41:26.400Z,89.70
2018-01-04T06:43:56.550Z,89.90
2018-01-04T06:46:27.606Z,89.50
2018-01-04T06:48:57.587Z,89.50
2018-01-04T06:51:27.621Z,89.40
2018-01-04T06:54:00.600Z,89.50
2018-01-04T06:56:31.859Z,89.70
2018-01-04T06:59:01.917Z,89.70
2018-01-04T07:01:31.946Z,89.90
2018-01-04T07:04:06.281Z,89.60
2018-01-04T07:06:39.636Z,89.60
2018-01-04T07:09:14.643Z,89.80
2018-01-04T07:11:47.451Z,89.70
2018-01-04T07:14:31.085Z,89.40
2018-01-04T07:17:27.824Z,89.30
2018-01-04T07:20:00.312Z,89.50
2018-01-04T07:22:35.565Z,89.50
2018-01-04T07:25:08.162Z,89.60
2018-01-04T07:27:44.666Z,89.30
2018-01-04T07:30:16.440Z,89.30
2018-01-04T07:35:54.370Z,89.40
2018-01-04T07:38:31.331Z,89.50
2018-01-04T07:44:16.751Z,89.10
2018-01-04T07:46:48.196Z,89.30
2018-01-04T07:49:23.162Z,89.40
2018-01-04T07:52:04.231Z,89.20
2018-01-04T07:57:35.352Z,88.90
2018-01-04T08:00:06.822Z,88.90
2018-01-04T08:02:45.325Z,88.80
2018-01-04T08:05:17.877Z,89.10
2018-01-04T08:07:48.093Z,87.80
2018-01-04T08:10:20.383Z,88.90
2018-01-04T08:12:51.738Z,88.30
2018-01-04T08:15:25.554Z,88.40
2018-01-04T08:17:57.162Z,88.00
2018-01-04T08:20:31.888Z,88.00
2018-01-04T08:23:02.644Z,88.40
2018-01-04T08:25:34.613Z,88.40
2018-01-04T08:28:06.133Z,88.20
2018-01-04T08:30:49.098Z,87.90
2018-01-04T08:33:24.571Z,87.60
2018-01-04T08:35:55.429Z,87.60
2018-01-04T08:38:27.745Z,88.00
2018-01-04T08:43:53.224Z,88.30
2018-01-04T08:46:28.955Z,88.90
2018-01-04T08:48:59.376Z,89.40
2018-01-04T08:54:17.668Z,91.10
2018-01-04T08:56:55.468Z,91.90
2018-01-04T08:59:26.871Z,92.50
2018-01-04T09:01:57.302Z,93.30
2018-01-04T09:04:58.302Z,93.80
2018-01-04T09:07:33.403Z,94.10
2018-01-04T09:10:39.193Z,94.50
2018-01-04T09:13:35.753Z,94.80
2018-01-04T09:16:28.256Z,95.30
2018-01-04T09:24:56.132Z,96.60
2018-01-04T09:27:32.490Z,96.60
2018-01-04T09:30:06.596Z,97.00
2018-01-04T09:32:38.635Z,97.10
2018-01-04T09:35:10.615Z,96.90
2018-01-04T09:37:43.117Z,97.50
2018-01-04T09:40:15.205Z,97.50
2018-01-04T09:42:48.522Z,97.40
2018-01-04T09:45:19.705Z,97.00
2018-01-04T09:47:49.963Z,97.00
2018-01-04T09:53:02.438Z,97.20
2018-01-04T09:55:46.523Z,97.20
2018-01-04T09:58:21.219Z,97.30
2018-01-04T10:01:04.526Z,97.40
2018-01-04T10:03:39.170Z,97.30
2018-01-04T10:06:11.056Z,97.40
2018-01-04T10:08:48.553Z,97.60
2018-01-04T10:11:27.733Z,97.60
2018-01-04T10:13:59.850Z,97.70
2018-01-04T10:16:35.713Z,97.50
2018-01-04T10:19:17.650Z,98.00
2018-01-04T10:21:52.117Z,98.30
2018-01-04T10:24:26.549Z,98.20
2018-01-04T10:29:49.811Z,98.20
2018-01-04T10:33:02.320Z,98.00
2018-01-04T10:35:43.448Z,98.10
2018-01-04T10:38:14.944Z,98.10
2018-01-04T10:40:46.066Z,98.20
2018-01-04T10:43:27.384Z,98.40
2018-01-04T10:46:01.327Z,98.30
2018-01-04T10:48:40.722Z,98.40
2018-01-04T10:51:11.966Z,98.40
2018-01-04T10:53:57.936Z,98.60
2018-01-04T10:56:32.253Z,98.60
2018-01-04T10:59:04.522Z,98.60
2018-01-04T11:01:51.958Z,98.60
2018-01-04T11:04:23.813Z,98.40
2018-01-04T11:06:58.278Z,98.70
2018-01-04T11:09:35.626Z,98.90
2018-01-04T11:12:07.918Z,98.90
2018-01-04T11:14:45.202Z,98.70
2018-01-04T11:17:19.250Z,98.60
2018-01-04T11:20:01.302Z,98.50
2018-01-04T11:22:38.036Z,98.70
2018-01-04T11:25:10.577Z,98.70
2018-01-04T11:27:45.190Z,98.90
2018-01-04T11:30:36.619Z,98.80
2018-01-04T11:33:07.392Z,98.90
2018-01-04T11:35:40.683Z,98.90
2018-01-04T11:38:15.465Z,99.00
2018-01-04T11:40:55.196Z,99.00
2018-01-04T11:43:38.443Z,98.80
2018-01-04T11:46:10.409Z,98.30
2018-01-04T11:48:49.921Z,98.50
2018-01-04T11:51:29.501Z,98.60
2018-01-04T11:54:15.459Z,98.70
2018-01-04T11:57:12.033Z,98.80
2018-01-04T12:02:54.433Z,99.00
2018-01-04T12:05:32.402Z,98.80
2018-01-04T12:08:21.455Z,99.00
2018-01-04T12:11:01.130Z,98.80
2018-01-04T12:13:32.074Z,98.80
2018-01-04T12:16:05.286Z,98.70
2018-01-04T12:18:53.551Z,98.70
2018-01-04T12:21:40.255Z,98.50
2018-01-04T12:24:23.025Z,98.60
2018-01-04T12:27:18.185Z,98.60
2018-01-04T12:30:23.209Z,98.60
2018-01-04T12:32:54.419Z,98.70
2018-01-04T12:35:25.815Z,98.80
2018-01-04T12:37:57.850Z,98.90
2018-01-04T12:40:30.578Z,98.90
2018-01-04T12:46:30.812Z,98.80
2018-01-04T12:49:02.877Z,98.70
2018-01-04T12:51:33.739Z,98.90
2018-01-04T12:54:04.749Z,99.30
2018-01-04T12:56:35.958Z,99.30
2018-01-04T12:59:07.218Z,99.30
2018-01-04T13:01:38.902Z,99.40
2018-01-04T13:04:09.426Z,99.40
2018-01-04T13:06:40.080Z,99.60
2018-01-04T13:09:28.559Z,99.50
2018-01-04T13:11:59.475Z,99.70
2018-01-04T13:14:47.565Z,99.80
2018-01-04T13:17:20.156Z,99.80
2018-01-04T13:19:52.370Z,99.80
2018-01-04T13:22:23.472Z,99.80
2018-01-04T13:24:53.276Z,99.90
2018-01-04T13:27:29.199Z,99.90
2018-01-04T13:30:02.915Z,99.90
2018-01-04T13:32:33.915Z,99.90
2018-01-04T13:35:04.973Z,99.90
2018-01-04T13:37:35.093Z,99.90
2018-01-04T13:40:10.272Z,99.90
2018-01-04T13:42:44.449Z,99.90
2018-01-04T13:45:20.065Z,99.90
2018-01-04T13:47:52.979Z,99.90
2018-01-04T13:50:30.448Z,99.90
2018-01-04T13:53:08.342Z,99.90
2018-01-04T13:55:39.421Z,99.90
2018-01-04T13:58:13.952Z,99.90
2018-01-04T14:00:45.151Z,99.90
2018-01-04T14:03:16.098Z,99.90
2018-01-04T14:05:46.647Z,99.90
2018-01-04T14:08:18.572Z,99.90
2018-01-04T14:11:04.840Z,99.90
2018-01-04T14:13:38.910Z,99.90
2018-01-04T14:16:14.042Z,99.90
2018-01-04T14:18:44.093Z,99.90
2018-01-04T14:21:14.309Z,99.90
2018-01-04T14:23:44.103Z,99.90
2018-01-04T14:26:14.388Z,99.90
2018-01-04T14:28:45.321Z,99.90
2018-01-04T14:31:16.881Z,99.90
2018-01-04T14:33:47.143Z,99.90
2018-01-04T14:36:19.409Z,99.90
2018-01-04T14:38:50.719Z,99.90
2018-01-04T14:41:21.077Z,99.90
2018-01-04T14:43:52.603Z,99.90
2018-01-04T14:46:23.372Z,99.90
2018-01-04T14:48:58.012Z,99.90
2018-01-04T14:51:31.042Z,99.90
2018-01-04T14:56:43.537Z,99.90
2018-01-04T14:59:16.404Z,99.90
2018-01-04T15:01:48.044Z,99.90
2018-01-04T15:04:21.574Z,99.90
2018-01-04T15:06:55.435Z,99.90
2018-01-04T15:09:31.299Z,99.90
2018-01-04T15:12:04.679Z,99.90
2018-01-04T15:14:41.874Z,99.90
2018-01-04T15:17:18.240Z,99.90
2018-01-04T15:21:06.147Z,99.90
2018-01-04T15:23:55.427Z,99.90
2018-01-04T15:29:21.627Z,99.90
2018-01-04T15:32:04.436Z,99.90
2018-01-04T15:34:37.795Z,99.90
2018-01-04T15:37:09.070Z,99.90
2018-01-04T15:39:40.778Z,99.90
2018-01-04T15:42:15.099Z,99.90
2018-01-04T15:44:49.742Z,99.90
2018-01-04T15:47:21.345Z,99.90
2018-01-04T15:50:11.416Z,99.90
2018-01-04T15:53:05.858Z,99.70
2018-01-04T15:55:51.373Z,99.80
2018-01-04T15:58:34.257Z,98.90
2018-01-04T16:01:13.560Z,98.70
2018-01-04T16:03:46.881Z,98.10
2018-01-04T16:06:25.225Z,97.30
2018-01-04T16:10:18.981Z,96.60
2018-01-04T16:15:37.192Z,94.50
2018-01-04T16:18:14.855Z,94.90
2018-01-04T16:20:45.424Z,94.60
2018-01-04T16:23:19.613Z,94.70
2018-01-04T16:25:54.156Z,93.50
2018-01-04T16:28:26.467Z,93.10
2018-01-04T16:30:57.822Z,92.00
2018-01-04T16:33:28.653Z,92.20
2018-01-04T16:36:07.859Z,92.30
2018-01-04T16:38:41.594Z,92.00
2018-01-04T16:41:17.548Z,91.90
2018-01-04T16:43:54.850Z,91.70
2018-01-04T16:46:33.703Z,91.50
2018-01-04T16:49:16.203Z,91.00
2018-01-04T16:51:52.374Z,90.30
2018-01-04T16:54:23.459Z,90.50
2018-01-04T16:56:59.285Z,90.20
2018-01-04T16:59:31.036Z,90.30
2018-01-04T17:02:01.702Z,90.00
2018-01-04T17:04:35.023Z,89.80
2018-01-04T17:07:11.407Z,90.30
2018-01-04T17:09:59.270Z,90.20
2018-01-04T17:12:37.014Z,89.30
2018-01-04T17:15:13.033Z,87.50
2018-01-04T17:17:52.449Z,86.00
2018-01-04T17:26:52.219Z,83.30
2018-01-04T17:29:42.284Z,83.10
2018-01-04T17:32:30.346Z,82.80
2018-01-04T17:35:05.665Z,83.80
2018-01-04T17:37:36.689Z,83.30
2018-01-04T17:40:40.013Z,83.80
2018-01-04T17:46:30.757Z,83.30
2018-01-04T17:53:12.754Z,82.60
2018-01-04T17:55:48.553Z,81.40
2018-01-04T17:58:23.540Z,81.20
2018-01-04T18:00:56.300Z,81.10
2018-01-04T18:03:28.588Z,81.80
2018-01-04T18:06:06.908Z,80.80
2018-01-04T18:08:46.610Z,80.00
2018-01-04T18:11:19.226Z,80.60
2018-01-04T18:13:49.427Z,79.10
2018-01-04T18:16:22.228Z,77.90
2018-01-04T18:18:55.150Z,77.90
2018-01-04T18:24:06.302Z,76.50
2018-01-04T18:26:45.480Z,76.40
2018-01-04T18:29:24.383Z,77.60
2018-01-04T18:32:01.074Z,75.80
2018-01-04T18:34:36.529Z,75.40
2018-01-04T18:37:43.204Z,73.70
2018-01-04T18:40:23.976Z,74.30
2018-01-04T18:42:59.944Z,74.40
2018-01-04T18:49:07.534Z,75.30
2018-01-04T18:54:45.362Z,76.00
2018-01-04T18:57:55.086Z,75.20
2018-01-04T19:00:27.631Z,75.60
2018-01-04T19:02:59.220Z,77.00
2018-01-04T19:05:32.669Z,78.10
2018-01-04T19:08:10.740Z,77.20
2018-01-04T19:10:48.937Z,77.00
2018-01-04T19:13:21.469Z,76.80
2018-01-04T19:15:59.360Z,76.60
2018-01-04T19:18:54.179Z,75.70
2018-01-04T19:21:34.120Z,76.20
2018-01-04T19:24:06.444Z,77.20
2018-01-04T19:26:39.144Z,76.20
2018-01-04T19:29:10.359Z,76.80
2018-01-04T19:31:55.853Z,77.20
2018-01-04T19:34:32.581Z,77.20
2018-01-04T19:37:11.260Z,77.10
2018-01-04T19:39:44.341Z,77.30
2018-01-04T19:42:18.582Z,78.10
2018-01-04T19:44:54.130Z,78.00
2018-01-04T19:47:26.130Z,77.70
2018-01-04T19:50:02.855Z,77.20
2018-01-04T19:52:37.463Z,76.60
2018-01-04T19:55:14.135Z,77.20
2018-01-04T19:57:46.548Z,77.30
2018-01-04T20:00:19.040Z,77.40
2018-01-04T20:02:57.513Z,77.70
2018-01-04T20:05:43.913Z,77.20
2018-01-04T20:08:24.935Z,76.90
2018-01-04T20:10:57.577Z,77.40
2018-01-04T20:13:49.772Z,77.60
2018-01-04T20:16:21.731Z,77.80
2018-01-04T20:19:29.020Z,77.70
2018-01-04T20:22:12.653Z,77.80
2018-01-04T20:24:49.807Z,76.70
2018-01-04T20:27:20.993Z,75.60
2018-01-04T20:29:52.300Z,75.60
2018-01-04T20:32:24.683Z,75.30
2018-01-04T20:34:56.307Z,74.30
2018-01-04T20:37:27.878Z,74.00
2018-01-04T20:40:06.541Z,73.90
2018-01-04T20:42:39.112Z,74.20
2018-01-04T20:45:11.032Z,73.00
2018-01-04T20:54:46.080Z,72.70
2018-01-04T20:57:43.482Z,73.10
2018-01-04T21:00:15.536Z,73.50
2018-01-04T21:02:47.669Z,73.40
2018-01-04T21:05:18.954Z,75.00
2018-01-04T21:07:51.699Z,74.30
2018-01-04T21:10:23.051Z,75.20
2018-01-04T21:12:54.492Z,74.70
2018-01-04T21:15:24.831Z,75.20
2018-01-04T21:17:58.975Z,74.80
2018-01-04T21:20:31.428Z,75.30
2018-01-04T21:23:02.320Z,75.50
2018-01-04T21:25:39.332Z,75.10
2018-01-04T21:28:11.983Z,75.90
2018-01-04T21:30:56.187Z,75.30
2018-01-04T21:33:26.984Z,76.10
2018-01-04T21:35:59.677Z,75.40
2018-01-04T21:38:52.474Z,75.60
2018-01-04T21:41:46.618Z,76.00
2018-01-04T21:44:34.645Z,75.60
2018-01-04T21:47:14.297Z,76.80
2018-01-04T21:49:58.063Z,76.40
2018-01-04T21:52:35.145Z,76.00
2018-01-04T21:55:06.461Z,76.50
2018-01-04T21:57:41.512Z,76.20
2018-01-04T22:00:16.921Z,76.20
2018-01-04T22:02:47.628Z,76.00
2018-01-04T22:05:19.123Z,76.40
2018-01-04T22:08:17.406Z,76.70
2018-01-04T22:10:50.440Z,76.70
2018-01-04T22:13:21.468Z,76.90
2018-01-04T22:16:02.636Z,77.40
2018-01-04T22:19:09.262Z,77.40
2018-01-04T22:21:48.785Z,78.50
2018-01-04T22:24:20.298Z,78.60
2018-01-04T22:26:53.383Z,78.60
2018-01-04T22:29:29.019Z,79.20
2018-01-04T22:32:02.549Z,78.80
2018-01-04T22:34:33.385Z,78.40
2018-01-04T22:37:10.535Z,78.30
2018-01-04T22:39:47.564Z,78.30
2018-01-04T22:42:26.994Z,77.80
2018-01-04T22:45:03.782Z,77.40
2018-01-04T22:47:43.415Z,77.60
2018-01-04T22:50:20.564Z,77.50
2018-01-04T22:52:56.307Z,77.50
2018-01-04T22:55:28.863Z,76.90
2018-01-04T22:58:02.205Z,76.50
2018-01-04T23:00:35.580Z,76.80
2018-01-04T23:03:08.735Z,76.70
2018-01-04T23:05:51.848Z,76.40
2018-01-04T23:08:26.478Z,76.80
2018-01-04T23:10:58.379Z,77.20
2018-01-04T23:13:29.105Z,77.20
2018-01-04T23:16:03.389Z,76.50
2018-01-04T23:18:46.405Z,76.60
2018-01-04T23:21:18.374Z,77.00
2018-01-04T23:23:52.110Z,77.10
2018-01-04T23:26:22.994Z,77.40
2018-01-04T23:28:55.841Z,78.00
2018-01-04T23:31:38.796Z,77.50
2018-01-04T23:34:22.578Z,77.50
2018-01-04T23:37:17.803Z,77.60
2018-01-04T23:39:55.309Z,77.80
2018-01-04T23:42:33.969Z,78.30
2018-01-04T23:45:12.554Z,78.50
2018-01-04T23:47:43.522Z,78.40
2018-01-04T23:50:14.569Z,78.50
2018-01-04T23:52:45.821Z,78.20
2018-01-04T23:55:17.533Z,78.70
2018-01-04T23:57:48.132Z,78.30
